createdAt,value
2017-11-25T00:00:15.663Z,60.17
2017-11-25T00:05:17.401Z,65.40
2017-11-25T00:10:19.210Z,75.40
2017-11-25T00:15:21.004Z,95.63
2017-11-25T00:20:23.516Z,96.37
2017-11-25T00:25:26.496Z,91.77
2017-11-25T00:30:28.331Z,76.93
2017-11-25T00:35:30.205Z,86.73
2017-11-25T00:40:31.984Z,76.50
2017-11-25T00:45:33.816Z,87.10
2017-11-25T00:50:35.613Z,95.30
2017-11-25T00:55:37.322Z,79.03
2017-11-25T01:00:39.065Z,81.20
2017-11-25T01:05:41.495Z,98.83
2017-11-25T01:10:44.004Z,78.73
2017-11-25T01:15:45.749Z,83.43
2017-11-25T01:20:47.495Z,77.13
2017-11-25T01:25:50.006Z,76.93
2017-11-25T01:30:52.528Z,68.83
2017-11-25T01:35:55.036Z,60.43
2017-11-25T01:40:57.583Z,68.03
2017-11-25T01:45:59.401Z,60.33
2017-11-25T01:51:01.262Z,61.23
2017-11-25T01:56:03.908Z,51.50
2017-11-25T02:01:05.735Z,58.17
2017-11-25T02:06:07.544Z,62.83
2017-11-25T02:11:09.346Z,62.70
2017-11-25T02:16:11.192Z,73.67
2017-11-25T02:21:13.852Z,65.03
2017-11-25T02:26:15.659Z,70.27
2017-11-25T02:31:17.616Z,86.10
2017-11-25T02:36:20.394Z,85.87
2017-11-25T02:41:22.172Z,83.27
2017-11-25T02:46:23.905Z,97.60
2017-11-25T02:51:26.922Z,84.87
2017-11-25T02:56:30.219Z,72.67
2017-11-25T03:01:37.549Z,67.40
2017-11-25T03:06:44.898Z,75.00
2017-11-25T03:11:48.714Z,102.40
2017-11-25T03:16:51.488Z,108.13
2017-11-25T03:21:53.902Z,97.77
2017-11-25T03:26:57.300Z,101.33
2017-11-25T03:32:02.880Z,99.10
2017-11-25T03:37:09.324Z,120.17
2017-11-25T03:42:12.640Z,141.17
2017-11-25T03:47:19.182Z,127.13
2017-11-25T03:52:27.176Z,123.13
2017-11-25T03:57:30.496Z,121.30
2017-11-25T04:02:36.876Z,121.50
2017-11-25T04:07:39.359Z,138.63
2017-11-25T04:12:41.094Z,109.40
2017-11-25T04:17:42.799Z,100.00
2017-11-25T04:22:44.485Z,128.20
2017-11-25T04:27:46.160Z,111.50
2017-11-25T04:32:47.937Z,134.90
2017-11-25T04:37:50.369Z,110.37
2017-11-25T04:42:52.073Z,114.57
2017-11-25T04:47:54.019Z,101.63
2017-11-25T04:52:55.732Z,98.70
2017-11-25T04:57:57.529Z,81.43
2017-11-25T05:02:59.345Z,95.50
2017-11-25T05:08:01.899Z,80.90
2017-11-25T05:13:03.660Z,92.27
2017-11-25T05:18:05.391Z,97.63
2017-11-25T05:23:07.127Z,101.67
2017-11-25T05:28:09.043Z,117.43
2017-11-25T05:33:10.850Z,115.60
2017-11-25T05:38:12.679Z,114.13
2017-11-25T05:43:15.608Z,138.10
2017-11-25T05:48:17.368Z,130.30
2017-11-25T05:53:19.041Z,125.40
2017-11-25T05:58:20.796Z,93.37
2017-11-25T06:03:22.488Z,74.87
2017-11-25T06:08:24.921Z,94.33
2017-11-25T06:13:26.613Z,90.47
2017-11-25T06:18:28.368Z,67.00
2017-11-25T06:23:30.095Z,66.60
2017-11-25T06:28:32.580Z,77.03
2017-11-25T06:33:37.229Z,63.00
2017-11-25T06:38:39.074Z,61.77
2017-11-25T06:43:43.428Z,45.50
2017-11-25T06:48:46.112Z,49.37
2017-11-25T06:53:47.794Z,74.57
2017-11-25T06:58:49.503Z,84.40
2017-11-25T07:03:51.180Z,133.10
2017-11-25T07:08:52.856Z,151.70
2017-11-25T07:13:54.573Z,161.10
2017-11-25T07:18:56.292Z,139.37
2017-11-25T07:23:58.033Z,133.10
2017-11-25T07:29:00.342Z,138.40
2017-11-25T07:34:02.068Z,123.97
2017-11-25T07:39:03.909Z,124.27
2017-11-25T07:49:38.637Z,143.87
2017-11-25T07:54:40.419Z,130.87
2017-11-25T07:59:42.169Z,118.30
2017-11-25T08:04:43.914Z,108.77
2017-11-25T08:09:45.960Z,126.60
2017-11-25T08:14:48.519Z,103.43
2017-11-25T08:19:50.332Z,102.33
2017-11-25T08:24:52.125Z,97.10
2017-11-25T08:29:53.877Z,102.47
2017-11-25T08:34:56.358Z,109.60
2017-11-25T08:39:58.183Z,91.50
2017-11-25T08:45:00.748Z,85.90
2017-11-25T08:50:02.516Z,93.40
2017-11-25T08:55:04.593Z,103.13
2017-11-25T09:00:06.314Z,106.53
2017-11-25T09:05:08.108Z,91.10
2017-11-25T09:10:10.589Z,98.37
2017-11-25T09:15:12.420Z,91.10
2017-11-25T09:20:15.467Z,101.83
2017-11-25T09:25:17.203Z,84.97
2017-11-25T09:30:18.967Z,76.17
2017-11-25T09:35:20.786Z,73.00
2017-11-25T09:40:22.550Z,63.53
2017-11-25T09:45:24.352Z,64.60
2017-11-25T09:50:26.221Z,72.33
2017-11-25T09:55:27.990Z,66.43
2017-11-25T10:00:29.885Z,62.27
2017-11-25T10:05:32.103Z,54.70
2017-11-25T10:10:33.927Z,47.70
2017-11-25T10:15:35.713Z,51.27
2017-11-25T10:20:37.472Z,31.03
2017-11-25T10:25:39.899Z,36.00
2017-11-25T10:30:41.697Z,33.07
2017-11-25T10:35:43.426Z,32.47
2017-11-25T10:40:45.221Z,29.90
2017-11-25T10:45:47.018Z,24.60
2017-11-25T10:50:48.842Z,25.13
2017-11-25T10:55:50.611Z,23.43
2017-11-25T11:00:52.376Z,17.23
2017-11-25T11:05:54.415Z,28.60
2017-11-25T11:10:56.333Z,19.90
2017-11-25T11:15:58.156Z,24.17
2017-11-25T11:20:59.990Z,20.67
2017-11-25T11:26:01.717Z,25.90
2017-11-25T11:31:03.540Z,34.03
2017-11-25T11:36:05.247Z,14.93
2017-11-25T11:41:07.012Z,21.23
2017-11-25T11:46:08.716Z,10.00
2017-11-25T11:51:10.778Z,23.03
2017-11-25T11:56:12.520Z,10.03
2017-11-25T12:01:14.351Z,17.87
2017-11-25T12:06:16.147Z,8.90
2017-11-25T12:11:17.917Z,10.50
2017-11-25T12:16:19.645Z,14.83
2017-11-25T12:21:21.421Z,17.40
2017-11-25T12:26:23.155Z,11.00
2017-11-25T12:31:24.988Z,9.20
2017-11-25T12:36:26.709Z,16.30
2017-11-25T12:41:28.468Z,9.43
2017-11-25T12:46:30.483Z,8.40
2017-11-25T12:51:32.487Z,9.13
2017-11-25T12:56:34.275Z,14.43
2017-11-25T13:01:36.098Z,8.10
2017-11-25T13:06:37.866Z,9.60
2017-11-25T13:11:39.631Z,10.27
2017-11-25T13:16:41.388Z,17.80
2017-11-25T13:21:43.870Z,13.20
2017-11-25T13:26:46.114Z,11.20
2017-11-25T13:31:47.949Z,6.23
2017-11-25T13:36:49.724Z,9.60
2017-11-25T13:41:52.286Z,21.47
2017-11-25T13:46:54.457Z,12.43
2017-11-25T13:51:56.972Z,12.37
2017-11-25T13:56:59.510Z,11.07
2017-11-25T14:02:01.339Z,12.23
2017-11-25T14:07:04.013Z,14.03
2017-11-25T14:12:06.344Z,14.50
2017-11-25T14:17:08.296Z,11.00
2017-11-25T14:22:10.008Z,8.07
2017-11-25T14:27:11.786Z,7.27
2017-11-25T14:32:13.589Z,7.17
2017-11-25T14:37:15.324Z,8.70
2017-11-25T14:42:17.096Z,6.63
2017-11-25T14:47:18.822Z,5.93
2017-11-25T14:52:21.443Z,15.40
2017-11-25T14:57:23.480Z,7.00
2017-11-25T15:02:25.230Z,11.77
2017-11-25T15:07:26.944Z,24.67
2017-11-25T15:12:29.470Z,9.33
2017-11-25T15:17:31.225Z,8.80
2017-11-25T15:22:32.985Z,10.00
2017-11-25T15:27:34.741Z,14.40
2017-11-25T15:32:36.511Z,11.17
2017-11-25T15:37:39.256Z,9.60
2017-11-25T15:42:41.032Z,15.07
2017-11-25T15:47:42.873Z,9.40
2017-11-25T15:52:44.629Z,9.33
2017-11-25T15:57:46.410Z,12.53
2017-11-25T16:02:48.160Z,11.40
2017-11-25T16:07:50.288Z,11.73
2017-11-25T16:12:51.976Z,18.67
2017-11-25T16:17:53.748Z,12.50
2017-11-25T16:22:55.481Z,15.03
2017-11-25T16:27:57.247Z,14.60
2017-11-25T16:32:59.099Z,12.03
2017-11-25T16:38:01.618Z,13.57
2017-11-25T16:43:03.764Z,20.83
2017-11-25T16:48:14.577Z,13.23
2017-11-25T16:53:16.307Z,17.87
2017-11-25T16:58:18.040Z,15.07
2017-11-25T17:03:19.817Z,22.80
2017-11-25T17:08:22.444Z,20.50
2017-11-25T17:13:24.600Z,21.63
2017-11-25T17:18:26.456Z,22.47
2017-11-25T17:23:28.977Z,19.63
2017-11-25T17:28:31.456Z,19.43
2017-11-25T17:33:33.315Z,13.03
2017-11-25T17:38:35.014Z,13.00
2017-11-25T17:43:36.826Z,12.67
2017-11-25T17:48:38.563Z,17.03
2017-11-25T17:53:40.270Z,23.47
2017-11-25T17:58:41.995Z,18.67
2017-11-25T18:03:43.795Z,15.73
2017-11-25T18:08:46.287Z,17.03
2017-11-25T18:13:48.200Z,20.10
2017-11-25T18:18:49.972Z,21.63
2017-11-25T18:23:52.562Z,17.77
2017-11-25T18:28:54.515Z,16.30
2017-11-25T18:33:56.316Z,22.30
2017-11-25T18:39:02.270Z,18.37
2017-11-25T18:44:05.088Z,16.83
2017-11-25T18:49:06.799Z,20.37
2017-11-25T18:54:08.946Z,21.50
2017-11-25T18:59:11.783Z,24.07
2017-11-25T19:04:14.900Z,20.90
2017-11-25T19:09:17.570Z,18.57
2017-11-25T19:14:22.447Z,19.03
2017-11-25T19:19:24.759Z,20.43
2017-11-25T19:24:26.584Z,25.23
2017-11-25T19:29:28.342Z,20.70
2017-11-25T19:34:30.178Z,20.50
2017-11-25T19:39:31.946Z,19.10
2017-11-25T19:44:40.638Z,23.73
2017-11-25T19:54:56.122Z,36.43
2017-11-25T19:59:58.215Z,26.40
2017-11-25T20:04:59.987Z,25.77
2017-11-25T20:10:01.713Z,21.23
2017-11-25T20:15:03.548Z,21.57
2017-11-25T20:20:06.424Z,23.03
2017-11-25T20:25:08.951Z,28.60
2017-11-25T20:30:12.344Z,25.90
2017-11-25T20:35:18.005Z,38.17
2017-11-25T20:40:20.084Z,19.50
2017-11-25T20:45:21.869Z,18.93
2017-11-25T20:50:24.441Z,21.07
2017-11-25T20:55:26.151Z,21.40
2017-11-25T21:00:27.940Z,22.63
2017-11-25T21:05:29.678Z,19.53
2017-11-25T21:10:32.197Z,17.87
2017-11-25T21:15:33.917Z,17.93
2017-11-25T21:20:35.717Z,16.03
2017-11-25T21:25:37.459Z,23.77
2017-11-25T21:30:39.230Z,20.43
2017-11-25T21:35:40.981Z,19.00
2017-11-25T21:40:43.595Z,18.77
2017-11-25T21:45:45.401Z,23.90
2017-11-25T21:50:47.863Z,20.23
2017-11-25T21:55:50.400Z,15.03
2017-11-25T22:00:52.961Z,17.47
2017-11-25T22:05:56.090Z,17.30
2017-11-25T22:10:59.189Z,17.53
2017-11-25T22:16:01.660Z,17.77
2017-11-25T22:21:04.202Z,21.60
2017-11-25T22:26:05.930Z,17.33
2017-11-25T22:31:07.844Z,20.87
2017-11-25T22:36:09.644Z,18.80
2017-11-25T22:41:12.217Z,20.53
2017-11-25T22:46:13.976Z,17.57
2017-11-25T22:51:17.475Z,19.00
2017-11-25T22:56:19.552Z,26.40
2017-11-25T23:01:21.369Z,23.70
2017-11-25T23:06:23.155Z,18.33
2017-11-25T23:11:24.902Z,23.07
2017-11-25T23:16:26.757Z,21.00
2017-11-25T23:21:28.571Z,23.43
2017-11-25T23:26:30.323Z,18.53
2017-11-25T23:31:32.049Z,23.83
2017-11-25T23:36:33.789Z,20.60
2017-11-25T23:41:35.569Z,22.67
2017-11-25T23:46:37.314Z,22.97
2017-11-25T23:51:39.084Z,21.80
2017-11-25T23:56:40.879Z,22.50
